Time;durP1;ratioP1;P1;durP2;ratioP2;P2;SDS_P1;SDS_P2;PMS_P1;PMS_P2;Temp;Humidity;BMP_temperature;BMP_pressure;BME280_temperature;BME280_humidity;BME280_pressure;Samples;Min_cycle;Max_cycle;Signal;HPM_P1;HPM_P2
2023/08/13 00:02:06;;;;;;;4.93;1.83;;;16.80;99.90;;;;;;5043818;28;20289;-86
2023/08/13 00:04:32;;;;;;;5.20;1.53;;;16.80;99.90;;;;;;5042665;28;20221;-87
2023/08/13 00:06:59;;;;;;;10.00;2.13;;;16.80;99.90;;;;;;5041257;28;20225;-87
2023/08/13 00:09:25;;;;;;;10.23;2.30;;;16.80;99.90;;;;;;5041547;28;20237;-86
2023/08/13 00:11:51;;;;;;;13.60;2.30;;;16.90;99.90;;;;;;5024701;28;20221;-86
2023/08/13 00:14:17;;;;;;;8.33;1.73;;;16.90;99.90;;;;;;5041151;28;20200;-85
2023/08/13 00:16:44;;;;;;;6.43;1.93;;;16.90;99.90;;;;;;5042789;28;20182;-87
2023/08/13 00:19:09;;;;;;;5.10;2.43;;;16.90;99.90;;;;;;5041080;28;20304;-88
2023/08/13 00:21:35;;;;;;;7.97;1.73;;;16.90;99.90;;;;;;5042874;28;20232;-87
2023/08/13 00:24:01;;;;;;;12.57;2.57;;;16.90;99.90;;;;;;5042282;28;20224;-87
2023/08/13 00:26:27;;;;;;;5.77;1.70;;;16.90;99.90;;;;;;5041669;28;20217;-88
2023/08/13 00:28:53;;;;;;;8.73;2.33;;;16.90;99.90;;;;;;5024711;28;20651;-86
2023/08/13 00:31:19;;;;;;;6.40;2.33;;;16.90;99.90;;;;;;5042035;28;20222;-85
2023/08/13 00:33:44;;;;;;;14.73;2.20;;;16.90;99.90;;;;;;5057679;28;20218;-87
2023/08/13 00:36:10;;;;;;;14.33;3.20;;;16.90;99.90;;;;;;5041790;28;20221;-88
2023/08/13 00:38:36;;;;;;;9.73;2.67;;;16.90;99.90;;;;;;5041973;28;20226;-86
2023/08/13 00:41:01;;;;;;;4.47;1.67;;;16.90;99.90;;;;;;5042005;28;20197;-86
2023/08/13 00:43:27;;;;;;;2.87;1.57;;;16.90;99.90;;;;;;5040162;28;20237;-86
2023/08/13 00:45:53;;;;;;;6.40;2.53;;;16.90;99.90;;;;;;5041134;28;20224;-85
2023/08/13 00:48:19;;;;;;;12.97;2.83;;;17.00;99.90;;;;;;5074677;28;20209;-87
2023/08/13 00:50:45;;;;;;;9.07;1.83;;;17.00;99.90;;;;;;5041078;28;20228;-86
2023/08/13 00:53:12;;;;;;;11.13;1.80;;;17.00;99.90;;;;;;5042078;28;20182;-88
2023/08/13 00:55:38;;;;;;;9.27;3.03;;;17.00;99.90;;;;;;5040588;28;20275;-86
2023/08/13 00:58:04;;;;;;;12.73;2.63;;;17.00;99.90;;;;;;5041135;28;20226;-85
2023/08/13 01:00:30;;;;;;;8.60;3.00;;;17.00;99.90;;;;;;5024192;28;20218;-87
2023/08/13 01:02:56;;;;;;;9.63;1.93;;;17.00;99.90;;;;;;5041780;28;20214;-87
2023/08/13 01:05:45;;;;;;;11.23;2.10;;;17.10;99.90;;;;;;5041388;28;20197;-84
2023/08/13 01:08:28;;;;;;;3.80;2.30;;;17.10;99.90;;;;;;5030085;28;21227;-85
2023/08/13 01:11:19;;;;;;;10.77;2.47;;;17.10;99.90;;;;;;5042589;28;20754;-86
2023/08/13 01:13:53;;;;;;;5.53;2.43;;;17.10;99.90;;;;;;5073991;28;20222;-88
2023/08/13 01:16:20;;;;;;;7.93;1.83;;;17.10;99.90;;;;;;5073494;28;20225;-87
2023/08/13 01:18:46;;;;;;;4.67;2.57;;;17.20;99.90;;;;;;5041132;28;20892;-85
2023/08/13 01:21:12;;;;;;;13.53;2.40;;;17.20;99.90;;;;;;5040732;28;20217;-87
2023/08/13 01:23:38;;;;;;;6.67;2.17;;;17.20;99.90;;;;;;5040292;28;20280;-86
2023/08/13 01:26:19;;;;;;;4.27;1.33;;;17.20;99.90;;;;;;5024133;28;20659;-87
2023/08/13 01:28:59;;;;;;;8.00;2.40;;;17.10;99.90;;;;;;5040595;28;20772;-85
2023/08/13 01:31:28;;;;;;;6.70;1.70;;;17.20;99.90;;;;;;5040395;28;20221;-84
2023/08/13 01:33:56;;;;;;;12.50;2.50;;;17.20;99.90;;;;;;5039837;28;20232;-85
2023/08/13 01:36:24;;;;;;;9.00;2.13;;;17.20;99.90;;;;;;5040445;28;20220;-85
2023/08/13 01:38:52;;;;;;;13.00;3.20;;;17.30;99.90;;;;;;5040054;28;20269;-84
2023/08/13 01:41:18;;;;;;;1.93;1.50;;;17.30;99.90;;;;;;5040175;28;20194;-87
2023/08/13 01:43:44;;;;;;;2.70;1.80;;;17.30;99.90;;;;;;5041319;28;20256;-88
2023/08/13 01:46:10;;;;;;;4.17;2.23;;;17.30;99.90;;;;;;5040271;28;20683;-88
2023/08/13 01:48:36;;;;;;;9.13;2.57;;;17.30;99.90;;;;;;5023893;28;20214;-88
2023/08/13 01:51:01;;;;;;;1.80;1.50;;;17.30;99.90;;;;;;5023402;28;20244;-86
2023/08/13 01:53:27;;;;;;;6.37;1.83;;;17.40;99.90;;;;;;5040628;28;20202;-88
2023/08/13 01:55:53;;;;;;;2.80;1.63;;;17.40;99.90;;;;;;5041289;28;20667;-85
2023/08/13 01:58:18;;;;;;;9.30;2.83;;;17.40;99.90;;;;;;5039860;28;20295;-88
2023/08/13 02:00:44;;;;;;;17.63;2.97;;;17.50;99.90;;;;;;5039567;28;20427;-88
2023/08/13 02:03:10;;;;;;;8.47;1.80;;;17.40;99.90;;;;;;5040095;28;20678;-84
2023/08/13 02:05:36;;;;;;;7.70;2.43;;;17.40;99.90;;;;;;5039453;28;20613;-87
2023/08/13 02:08:02;;;;;;;11.73;3.80;;;17.50;99.90;;;;;;5039253;28;20205;-88
2023/08/13 02:10:28;;;;;;;3.97;2.27;;;17.50;99.90;;;;;;5040358;28;20865;-87
2023/08/13 02:12:54;;;;;;;3.33;1.83;;;17.50;99.90;;;;;;5039905;28;20325;-87
2023/08/13 02:15:19;;;;;;;7.03;3.33;;;17.50;99.90;;;;;;5039477;28;20271;-87
2023/08/13 02:17:45;;;;;;;7.87;2.53;;;17.50;99.90;;;;;;5040131;28;20681;-86
2023/08/13 02:20:11;;;;;;;7.90;2.10;;;17.50;99.90;;;;;;5040234;28;21043;-87
2023/08/13 02:22:37;;;;;;;8.10;2.43;;;17.50;99.90;;;;;;5041249;28;20217;-88
2023/08/13 02:25:03;;;;;;;9.57;3.03;;;17.50;99.90;;;;;;5040731;28;20215;-87
2023/08/13 02:27:29;;;;;;;5.37;2.33;;;17.50;99.90;;;;;;5040837;28;20221;-88
2023/08/13 02:29:55;;;;;;;4.20;2.73;;;17.50;99.90;;;;;;5022516;28;21169;-88
2023/08/13 02:32:21;;;;;;;7.57;2.13;;;17.50;99.90;;;;;;5039290;28;20181;-86
2023/08/13 02:34:47;;;;;;;9.13;2.73;;;17.50;99.90;;;;;;5040238;28;20186;-86
2023/08/13 02:37:13;;;;;;;4.57;1.57;;;17.50;99.90;;;;;;5026381;28;20300;-84
2023/08/13 02:39:39;;;;;;;9.20;1.73;;;17.50;99.90;;;;;;5039322;28;20229;-85
2023/08/13 02:42:05;;;;;;;7.20;2.60;;;17.50;99.90;;;;;;5039974;28;20222;-84
2023/08/13 02:44:30;;;;;;;4.60;1.90;;;17.50;99.90;;;;;;5039131;28;20240;-84
2023/08/13 02:46:56;;;;;;;9.70;2.43;;;17.50;99.90;;;;;;5041331;28;20636;-84
2023/08/13 02:49:22;;;;;;;13.83;3.17;;;17.50;99.90;;;;;;5039314;28;20300;-87
2023/08/13 02:51:48;;;;;;;6.53;2.07;;;17.60;99.90;;;;;;5040024;28;20222;-86
2023/08/13 02:54:13;;;;;;;11.53;2.90;;;17.50;99.90;;;;;;5038888;28;20300;-87
2023/08/13 02:56:41;;;;;;;5.77;1.90;;;17.50;99.90;;;;;;5039873;28;20308;-87
2023/08/13 02:59:07;;;;;;;5.80;2.03;;;17.40;99.90;;;;;;5040227;28;20271;-84
2023/08/13 03:01:33;;;;;;;14.33;2.57;;;17.40;99.90;;;;;;5039301;28;20218;-86
2023/08/13 03:04:00;;;;;;;4.50;1.47;;;17.30;99.90;;;;;;5039956;28;20221;-86
2023/08/13 03:06:26;;;;;;;10.63;3.17;;;17.30;99.90;;;;;;5040438;28;20998;-85
2023/08/13 03:08:52;;;;;;;9.63;2.20;;;17.30;99.90;;;;;;5039711;28;20225;-85
2023/08/13 03:11:18;;;;;;;8.93;1.93;;;17.20;99.90;;;;;;5039527;28;20256;-85
2023/08/13 03:13:44;;;;;;;3.63;2.10;;;17.20;99.90;;;;;;5041521;28;20681;-87
2023/08/13 03:16:09;;;;;;;9.30;1.97;;;17.20;99.90;;;;;;5039582;28;20218;-85
2023/08/13 03:18:35;;;;;;;6.50;1.90;;;17.20;99.90;;;;;;5039374;28;20249;-87
2023/08/13 03:21:01;;;;;;;10.80;2.93;;;17.20;99.90;;;;;;5041762;28;20229;-85
2023/08/13 03:23:27;;;;;;;7.33;1.87;;;17.10;99.90;;;;;;5043054;28;20190;-84
2023/08/13 03:25:53;;;;;;;6.40;1.77;;;17.10;99.90;;;;;;5043354;28;20277;-88
2023/08/13 03:28:19;;;;;;;6.17;2.10;;;17.10;99.90;;;;;;5043110;28;20242;-88
2023/08/13 03:30:45;;;;;;;8.10;2.10;;;17.10;99.90;;;;;;5042757;28;20343;-88
2023/08/13 03:33:10;;;;;;;7.13;1.83;;;17.00;99.90;;;;;;5042719;28;20214;-86
2023/08/13 03:35:41;;;;;;;5.30;1.10;;;17.00;99.90;;;;;;5026772;28;20573;-84
2023/08/13 03:38:07;;;;;;;4.93;2.53;;;17.00;99.90;;;;;;5043679;28;20203;-84
2023/08/13 03:40:36;;;;;;;6.17;2.27;;;17.00;99.90;;;;;;5042190;28;20234;-85
2023/08/13 03:43:02;;;;;;;9.60;3.30;;;17.00;99.90;;;;;;5044107;28;20246;-87
2023/08/13 03:45:29;;;;;;;7.40;1.40;;;16.90;99.90;;;;;;5042230;28;20757;-89
2023/08/13 03:47:55;;;;;;;3.90;2.20;;;16.90;99.90;;;;;;5043279;28;20249;-83
2023/08/13 03:50:21;;;;;;;10.57;3.07;;;16.90;99.90;;;;;;5042686;28;20332;-86
2023/08/13 03:52:47;;;;;;;6.47;2.00;;;16.90;99.90;;;;;;5025941;28;20190;-87
2023/08/13 03:55:12;;;;;;;13.37;2.73;;;16.90;99.90;;;;;;5042205;28;20225;-88
2023/08/13 03:57:38;;;;;;;6.20;2.30;;;16.90;99.90;;;;;;5042139;28;20210;-89
2023/08/13 04:00:05;;;;;;;4.00;2.30;;;16.90;99.90;;;;;;5043681;28;20244;-87
2023/08/13 04:02:33;;;;;;;3.97;2.40;;;17.00;99.90;;;;;;5042900;28;20932;-88
2023/08/13 04:04:59;;;;;;;4.70;1.80;;;17.00;99.90;;;;;;5043114;28;20235;-90
2023/08/13 04:07:25;;;;;;;7.50;2.63;;;17.10;99.90;;;;;;5041562;28;20225;-88
2023/08/13 04:09:50;;;;;;;10.70;2.67;;;17.10;99.90;;;;;;5022168;28;20320;-89
2023/08/13 04:12:16;;;;;;;5.20;1.93;;;17.20;99.90;;;;;;5032481;28;20227;-85
2023/08/13 04:14:42;;;;;;;6.53;2.07;;;17.20;99.90;;;;;;5022716;28;20276;-88
2023/08/13 04:17:08;;;;;;;7.97;1.63;;;17.30;99.90;;;;;;5023077;28;20213;-89
2023/08/13 04:19:33;;;;;;;7.73;2.70;;;17.30;99.90;;;;;;5023373;28;20249;-85
2023/08/13 04:21:59;;;;;;;7.33;2.23;;;17.30;99.90;;;;;;5022293;28;20219;-89
2023/08/13 04:24:25;;;;;;;4.13;2.50;;;17.40;99.90;;;;;;5021862;28;21144;-89
2023/08/13 04:26:52;;;;;;;6.37;2.67;;;17.40;99.90;;;;;;5024563;28;20297;-88
2023/08/13 04:29:18;;;;;;;5.87;3.00;;;17.50;99.90;;;;;;5021029;28;20199;-87
2023/08/13 04:31:44;;;;;;;4.70;1.63;;;17.50;99.90;;;;;;5022955;28;20229;-88
2023/08/13 04:34:09;;;;;;;6.90;1.70;;;17.60;99.90;;;;;;5021655;28;20230;-87
2023/08/13 04:36:36;;;;;;;10.23;2.43;;;17.60;99.90;;;;;;5033464;28;20268;-86
2023/08/13 04:39:02;;;;;;;7.63;1.73;;;17.60;99.90;;;;;;5035788;28;20248;-86
2023/08/13 04:41:28;;;;;;;4.43;2.67;;;17.60;99.90;;;;;;5022615;28;20257;-89
2023/08/13 04:43:54;;;;;;;7.60;2.40;;;17.70;99.90;;;;;;5022405;28;20586;-88
2023/08/13 04:46:19;;;;;;;6.77;1.87;;;17.80;99.90;;;;;;5022344;28;20651;-89
2023/08/13 04:48:47;;;;;;;16.17;3.00;;;17.80;99.90;;;;;;5005017;28;21285;-88
2023/08/13 04:51:15;;;;;;;2.33;1.83;;;17.80;99.90;;;;;;5035750;28;20218;-87
2023/08/13 04:53:42;;;;;;;8.07;1.83;;;17.90;99.90;;;;;;5021155;28;20743;-87
2023/08/13 04:56:08;;;;;;;7.73;2.30;;;17.90;99.90;;;;;;5022139;28;20191;-88
2023/08/13 04:58:34;;;;;;;5.33;1.57;;;17.90;99.90;;;;;;5020339;28;20222;-87
2023/08/13 05:01:01;;;;;;;3.27;1.70;;;18.00;99.90;;;;;;5022190;28;20222;-86
2023/08/13 05:03:27;;;;;;;11.43;2.67;;;18.00;99.90;;;;;;5021220;28;20253;-89
2023/08/13 05:05:53;;;;;;;4.20;1.50;;;18.00;99.90;;;;;;5020693;28;20306;-89
2023/08/13 05:08:18;;;;;;;6.97;1.93;;;18.00;99.90;;;;;;5020730;28;20194;-88
2023/08/13 05:10:45;;;;;;;15.00;2.00;;;18.00;99.90;;;;;;5005532;28;20198;-87
2023/08/13 05:13:11;;;;;;;4.97;1.47;;;18.10;99.90;;;;;;5003934;28;20311;-86
2023/08/13 05:15:36;;;;;;;7.60;2.17;;;18.10;99.90;;;;;;5021102;28;20226;-87
2023/08/13 05:18:02;;;;;;;7.67;2.10;;;18.20;99.90;;;;;;5021478;28;20257;-88
2023/08/13 05:20:28;;;;;;;4.07;2.20;;;18.20;99.90;;;;;;5020814;28;20226;-88
2023/08/13 05:22:54;;;;;;;5.20;1.97;;;18.20;99.90;;;;;;5021916;28;20202;-87
2023/08/13 05:25:19;;;;;;;11.17;2.50;;;18.20;99.90;;;;;;5021121;28;20324;-88
2023/08/13 05:27:45;;;;;;;5.47;1.90;;;18.20;99.90;;;;;;5020622;28;20222;-88
2023/08/13 05:30:11;;;;;;;11.73;2.33;;;18.20;99.90;;;;;;5020956;28;20252;-87
2023/08/13 05:32:37;;;;;;;10.50;2.10;;;18.20;99.90;;;;;;5021232;28;21108;-87
2023/08/13 05:35:03;;;;;;;10.63;2.70;;;18.20;99.90;;;;;;5004215;28;20221;-86
2023/08/13 05:37:28;;;;;;;7.07;2.80;;;18.30;99.90;;;;;;5003287;28;20218;-86
2023/08/13 05:39:54;;;;;;;2.43;1.63;;;18.30;99.90;;;;;;5004777;28;20242;-88
2023/08/13 05:42:20;;;;;;;7.13;2.30;;;18.30;99.90;;;;;;5019537;28;20238;-89
2023/08/13 05:44:46;;;;;;;8.03;1.80;;;18.40;99.90;;;;;;5020331;28;21159;-87
2023/08/13 05:47:12;;;;;;;13.07;2.80;;;18.50;99.90;;;;;;5021693;28;20186;-86
2023/08/13 05:49:38;;;;;;;3.03;1.43;;;18.50;99.90;;;;;;5020722;28;20215;-86
2023/08/13 05:52:04;;;;;;;5.70;2.00;;;18.60;99.90;;;;;;5021581;28;20305;-89
2023/08/13 05:54:29;;;;;;;8.00;1.60;;;18.70;99.90;;;;;;5019562;28;20224;-84
2023/08/13 05:56:55;;;;;;;10.77;2.50;;;18.80;99.90;;;;;;5020554;28;20227;-87
2023/08/13 05:59:21;;;;;;;3.27;1.77;;;18.90;99.90;;;;;;5019498;28;20252;-88
2023/08/13 06:01:47;;;;;;;4.47;1.27;;;18.90;99.90;;;;;;5019959;28;20194;-86
2023/08/13 06:04:12;;;;;;;5.30;2.30;;;19.00;99.90;;;;;;5003318;28;20218;-87
2023/08/13 06:06:38;;;;;;;5.73;2.20;;;19.20;99.90;;;;;;5020117;28;20225;-87
2023/08/13 06:09:05;;;;;;;6.97;2.07;;;20.20;99.90;;;;;;5020574;28;20214;-84
2023/08/13 06:11:31;;;;;;;7.00;1.97;;;20.80;99.90;;;;;;5020783;28;20197;-87
2023/08/13 06:13:57;;;;;;;11.57;1.90;;;22.10;99.90;;;;;;5020502;28;21019;-86
2023/08/13 06:16:23;;;;;;;6.93;1.77;;;23.40;99.90;;;;;;5037127;28;20210;-87
2023/08/13 06:18:48;;;;;;;2.77;1.60;;;24.10;99.90;;;;;;5020428;28;20234;-87
2023/08/13 06:21:14;;;;;;;7.00;2.20;;;24.60;99.90;;;;;;5003650;28;20219;-86
2023/08/13 06:23:40;;;;;;;3.63;1.73;;;24.40;99.90;;;;;;5019236;28;20242;-85
2023/08/13 06:26:06;;;;;;;5.47;1.70;;;24.20;99.90;;;;;;5020482;28;20536;-83
2023/08/13 06:28:33;;;;;;;4.50;1.30;;;24.80;99.90;;;;;;5039600;28;20214;-87
2023/08/13 06:30:59;;;;;;;6.70;1.67;;;26.10;99.90;;;;;;5023129;28;20206;-86
2023/08/13 06:33:25;;;;;;;3.25;1.70;;;27.80;99.90;;;;;;5073217;28;20218;-85
2023/08/13 06:35:50;;;;;;;8.38;1.75;;;27.50;99.90;;;;;;5039441;28;20275;-88
2023/08/13 06:38:17;;;;;;;5.25;1.85;;;25.50;99.90;;;;;;5039935;28;20217;-85
2023/08/13 06:40:44;;;;;;;4.45;2.15;;;23.90;99.90;;;;;;5024636;28;20214;-87
2023/08/13 06:43:11;;;;;;;6.35;1.75;;;22.60;99.90;;;;;;5039469;28;20550;-87
2023/08/13 06:45:37;;;;;;;2.30;1.02;;;21.90;99.90;;;;;;5040081;28;20233;-88
2023/08/13 06:48:04;;;;;;;5.03;1.57;;;21.50;99.90;;;;;;5071915;28;20209;-88
2023/08/13 06:50:30;;;;;;;4.70;1.60;;;21.30;99.90;;;;;;5027585;28;20194;-89
2023/08/13 06:52:56;;;;;;;10.02;1.90;;;21.00;99.90;;;;;;5040868;28;20699;-85
2023/08/13 06:55:23;;;;;;;1.98;1.67;;;21.00;99.90;;;;;;5040937;28;20205;-86
2023/08/13 06:57:48;;;;;;;3.78;1.00;;;22.60;99.90;;;;;;5042055;28;21023;-88
2023/08/13 07:00:15;;;;;;;4.80;1.20;;;24.20;99.90;;;;;;5043752;28;20236;-85
2023/08/13 07:02:41;;;;;;;8.98;1.73;;;23.60;99.90;;;;;;5076870;28;20224;-89
2023/08/13 07:05:12;;;;;;;4.00;0.93;;;23.10;99.90;;;;;;5044098;28;20201;-90
2023/08/13 07:07:38;;;;;;;5.78;1.90;;;22.50;99.90;;;;;;5043086;28;20240;-86
2023/08/13 07:10:05;;;;;;;5.20;1.50;;;21.90;99.90;;;;;;5024962;28;20647;-86
2023/08/13 07:12:31;;;;;;;5.68;1.27;;;21.60;99.90;;;;;;5044079;28;20218;-86
2023/08/13 07:14:57;;;;;;;4.60;1.87;;;21.40;99.90;;;;;;5042812;28;20236;-87
2023/08/13 07:17:23;;;;;;;6.07;1.57;;;21.20;99.90;;;;;;5025177;28;20312;-86
2023/08/13 07:19:49;;;;;;;3.53;1.60;;;21.00;99.90;;;;;;5042975;28;20225;-86
2023/08/13 07:22:16;;;;;;;4.37;1.37;;;20.60;99.90;;;;;;5025425;28;20222;-87
2023/08/13 07:24:42;;;;;;;3.07;1.83;;;20.70;99.90;;;;;;5043337;28;20218;-87
2023/08/13 07:27:10;;;;;;;7.70;2.15;;;20.70;99.90;;;;;;5074288;28;20217;-88
2023/08/13 07:29:36;;;;;;;8.63;2.00;;;20.70;99.90;;;;;;5041923;28;20218;-90
2023/08/13 07:32:02;;;;;;;6.73;1.57;;;20.50;99.90;;;;;;5061444;28;20516;-91
2023/08/13 07:34:28;;;;;;;2.07;1.13;;;20.50;99.90;;;;;;5045427;28;20205;-94
2023/08/13 07:36:53;;;;;;;2.63;1.73;;;20.20;99.90;;;;;;5061162;28;20745;-85
2023/08/13 07:39:20;;;;;;;2.53;1.30;;;20.10;99.90;;;;;;5044088;28;20230;-89
2023/08/13 07:41:49;;;;;;;1.77;1.30;;;20.50;99.90;;;;;;5043840;28;20229;-94
2023/08/13 07:44:18;;;;;;;2.23;1.60;;;21.80;99.90;;;;;;5027759;28;20233;-88
2023/08/13 07:46:50;;;;;;;5.03;1.43;;;22.20;99.90;;;;;;5044645;28;20213;-91
2023/08/13 07:49:16;;;;;;;4.30;1.43;;;22.20;99.90;;;;;;5041534;28;20305;-87
2023/08/13 07:51:42;;;;;;;4.87;1.93;;;22.00;99.90;;;;;;5040697;28;20675;-88
2023/08/13 07:54:08;;;;;;;2.30;1.07;;;22.00;99.90;;;;;;5024068;28;20197;-87
2023/08/13 07:56:33;;;;;;;2.58;1.50;;;21.90;99.90;;;;;;5033607;28;20769;-87
2023/08/13 07:58:59;;;;;;;4.03;1.60;;;21.50;99.90;;;;;;5041272;28;20738;-87
2023/08/13 08:01:28;;;;;;;5.45;1.90;;;21.80;99.90;;;;;;5041763;28;20224;-85
2023/08/13 08:03:54;;;;;;;4.03;1.20;;;22.90;99.90;;;;;;5039853;28;20197;-85
2023/08/13 08:06:21;;;;;;;5.38;2.00;;;24.50;99.90;;;;;;5042428;28;20214;-86
2023/08/13 08:08:47;;;;;;;2.83;1.90;;;26.60;99.90;;;;;;5041677;28;20228;-85
2023/08/13 08:11:12;;;;;;;5.05;1.40;;;28.40;99.90;;;;;;5057430;28;20214;-85
2023/08/13 08:13:42;;;;;;;4.68;1.20;;;28.20;99.90;;;;;;5039896;28;20210;-91
2023/08/13 08:16:13;;;;;;;2.35;1.52;;;29.00;99.90;;;;;;5026112;28;20632;-85
2023/08/13 08:18:39;;;;;;;1.80;1.38;;;28.50;99.90;;;;;;5041204;28;20186;-86
2023/08/13 08:21:05;;;;;;;2.88;1.13;;;28.10;99.90;;;;;;5071434;28;20214;-87
2023/08/13 08:23:32;;;;;;;2.88;1.13;;;28.00;99.90;;;;;;5056467;28;20279;-86
2023/08/13 08:25:58;;;;;;;7.18;1.63;;;26.60;99.90;;;;;;5026111;28;20216;-87
2023/08/13 08:28:25;;;;;;;5.03;1.65;;;26.20;99.90;;;;;;5041344;28;21071;-87
2023/08/13 08:30:51;;;;;;;7.07;1.48;;;26.30;99.90;;;;;;5044388;28;20193;-86
2023/08/13 08:33:17;;;;;;;3.50;1.23;;;25.90;99.90;;;;;;5039755;28;20503;-85
2023/08/13 08:35:43;;;;;;;5.47;1.25;;;25.80;99.90;;;;;;5041406;28;20600;-88
2023/08/13 08:38:09;;;;;;;6.03;1.63;;;25.80;99.90;;;;;;5040346;28;20321;-85
2023/08/13 08:40:34;;;;;;;3.88;1.48;;;26.10;99.90;;;;;;5038339;28;20694;-86
2023/08/13 08:43:00;;;;;;;2.83;1.10;;;25.90;99.90;;;;;;5036719;28;21150;-83
2023/08/13 08:45:29;;;;;;;4.00;1.67;;;24.90;99.90;;;;;;5039296;28;20292;-85
2023/08/13 08:47:56;;;;;;;8.02;1.67;;;24.70;99.90;;;;;;5038698;28;20221;-86
2023/08/13 08:50:22;;;;;;;3.70;1.58;;;24.10;99.90;;;;;;5039236;28;20217;-84
2023/08/13 08:52:49;;;;;;;3.92;1.65;;;23.40;99.90;;;;;;5036993;28;20272;-86
2023/08/13 08:55:16;;;;;;;3.53;1.67;;;23.50;99.90;;;;;;5071243;28;20193;-85
2023/08/13 08:57:42;;;;;;;4.70;1.60;;;24.20;99.90;;;;;;5069935;28;20182;-84
2023/08/13 09:00:08;;;;;;;8.98;1.90;;;23.70;99.90;;;;;;5040577;28;20288;-87
2023/08/13 09:02:37;;;;;;;9.82;1.63;;;23.70;99.90;;;;;;5023477;28;20683;-86
2023/08/13 09:05:05;;;;;;;2.17;1.10;;;24.40;99.90;;;;;;5041123;28;20237;-85
2023/08/13 09:07:31;;;;;;;7.03;1.55;;;24.30;99.90;;;;;;5040898;28;20220;-83
2023/08/13 09:09:57;;;;;;;4.00;1.10;;;24.70;99.90;;;;;;5040836;28;20194;-86
2023/08/13 09:12:23;;;;;;;5.68;1.27;;;25.80;99.90;;;;;;5022142;28;20312;-85
2023/08/13 09:14:55;;;;;;;2.47;1.52;;;27.10;99.90;;;;;;5039219;28;20245;-85
2023/08/13 09:17:25;;;;;;;4.18;1.05;;;28.70;99.90;;;;;;5040678;28;20218;-83
2023/08/13 09:19:51;;;;;;;3.88;1.15;;;29.00;99.90;;;;;;5038784;28;20290;-82
2023/08/13 09:22:17;;;;;;;2.85;1.58;;;27.50;99.90;;;;;;5040939;28;20225;-86
2023/08/13 09:24:46;;;;;;;2.90;1.17;;;27.20;99.90;;;;;;5040101;28;20652;-85
2023/08/13 09:27:12;;;;;;;2.20;1.20;;;27.40;99.90;;;;;;5039648;28;20262;-84
2023/08/13 09:29:39;;;;;;;4.93;1.65;;;27.60;99.90;;;;;;5024179;28;20237;-84
2023/08/13 09:32:05;;;;;;;3.58;1.40;;;27.10;99.90;;;;;;5040160;28;20214;-86
2023/08/13 09:34:33;;;;;;;3.95;1.40;;;27.20;99.90;;;;;;5022655;28;20275;-84
2023/08/13 09:36:59;;;;;;;4.68;1.13;;;27.40;99.90;;;;;;5040831;28;20189;-85
2023/08/13 09:39:27;;;;;;;4.93;2.38;;;27.00;99.90;;;;;;5039538;28;20264;-86
2023/08/13 09:41:53;;;;;;;4.55;0.98;;;25.70;99.90;;;;;;5037418;28;21073;-84
2023/08/13 09:44:21;;;;;;;7.00;1.83;;;25.30;99.90;;;;;;5038889;28;20316;-84
2023/08/13 09:46:51;;;;;;;4.85;1.17;;;25.30;99.90;;;;;;5038233;28;20697;-85
2023/08/13 09:49:17;;;;;;;3.38;1.42;;;25.40;99.90;;;;;;5038703;28;20180;-85
2023/08/13 09:51:49;;;;;;;2.42;1.20;;;25.50;99.90;;;;;;5040084;28;20186;-86
2023/08/13 09:54:27;;;;;;;7.53;1.20;;;26.20;99.90;;;;;;5039529;28;20764;-87
2023/08/13 09:57:00;;;;;;;3.85;1.42;;;26.40;99.90;;;;;;5039273;28;20214;-84
2023/08/13 09:59:27;;;;;;;1.55;0.90;;;26.80;99.90;;;;;;5039343;28;20249;-85
2023/08/13 10:01:54;;;;;;;3.42;1.02;;;26.90;99.90;;;;;;5030802;28;20305;-85
2023/08/13 10:04:21;;;;;;;4.75;1.30;;;27.00;99.90;;;;;;5019792;28;21038;-84
2023/08/13 10:06:50;;;;;;;5.13;1.33;;;25.80;99.90;;;;;;5020925;28;20731;-87
2023/08/13 10:09:16;;;;;;;6.07;1.10;;;25.40;99.90;;;;;;5003512;28;20311;-85
2023/08/13 10:11:42;;;;;;;2.47;1.00;;;24.70;99.90;;;;;;5020574;28;20222;-86
2023/08/13 10:14:08;;;;;;;2.33;1.50;;;24.50;99.90;;;;;;5035970;28;20234;-85
2023/08/13 10:16:34;;;;;;;5.40;1.27;;;24.30;99.90;;;;;;5018786;28;20249;-83
2023/08/13 10:19:01;;;;;;;5.95;1.17;;;24.40;99.90;;;;;;5020018;28;20301;-85
2023/08/13 10:21:37;;;;;;;5.13;1.35;;;23.90;99.90;;;;;;5020649;28;20197;-85
2023/08/13 10:24:05;;;;;;;3.10;1.33;;;23.80;99.90;;;;;;5019895;28;20217;-86
2023/08/13 10:26:31;;;;;;;6.53;1.42;;;23.90;99.90;;;;;;5019080;28;20368;-86
2023/08/13 10:28:57;;;;;;;3.13;1.05;;;24.80;99.90;;;;;;5019033;28;20237;-84
2023/08/13 10:31:22;;;;;;;2.83;0.98;;;24.80;99.90;;;;;;5005732;28;20218;-86
2023/08/13 10:34:06;;;;;;;3.50;1.27;;;24.80;99.90;;;;;;5022195;28;20666;-84
2023/08/13 10:37:01;;;;;;;4.47;1.02;;;24.80;99.90;;;;;;5043037;28;20218;-85
2023/08/13 10:39:34;;;;;;;2.72;0.77;;;23.90;99.90;;;;;;5039627;28;20773;-86
2023/08/13 10:42:03;;;;;;;3.05;1.15;;;23.40;99.90;;;;;;5016864;28;20385;-84
2023/08/13 10:44:39;;;;;;;5.65;1.50;;;22.90;99.90;;;;;;5023722;28;20247;-87
2023/08/13 10:47:05;;;;;;;4.28;1.15;;;23.10;99.90;;;;;;5021719;28;20206;-85
2023/08/13 10:49:31;;;;;;;2.78;1.23;;;23.00;99.90;;;;;;5023540;28;20340;-85
2023/08/13 10:52:03;;;;;;;3.42;0.95;;;23.20;99.90;;;;;;5023289;28;20337;-85
2023/08/13 10:54:29;;;;;;;2.78;0.90;;;23.60;99.90;;;;;;5007508;28;20301;-86
2023/08/13 10:56:59;;;;;;;1.23;0.88;;;23.80;99.90;;;;;;5022224;28;20546;-85
2023/08/13 10:59:32;;;;;;;3.28;1.27;;;24.80;99.90;;;;;;5023822;28;20226;-88
2023/08/13 11:02:21;;;;;;;2.53;1.33;;;25.00;99.90;;;;;;5022862;28;20257;-88
2023/08/13 11:04:47;;;;;;;2.20;1.13;;;24.90;99.90;;;;;;5007529;28;20237;-89
2023/08/13 11:07:14;;;;;;;3.80;1.08;;;25.60;99.90;;;;;;5007276;28;20636;-87
2023/08/13 11:09:42;;;;;;;1.25;0.60;;;25.90;99.90;;;;;;5023661;28;20187;-85
2023/08/13 11:12:09;;;;;;;4.30;0.82;;;26.60;99.90;;;;;;5023539;28;20262;-86
2023/08/13 11:14:36;;;;;;;4.10;1.15;;;26.10;99.90;;;;;;5022442;28;20224;-88
2023/08/13 11:17:02;;;;;;;3.28;0.90;;;25.10;99.90;;;;;;5022588;28;20216;-89
2023/08/13 11:19:27;;;;;;;2.58;1.00;;;25.00;99.90;;;;;;5023378;28;20245;-87
2023/08/13 11:21:54;;;;;;;1.40;0.90;;;24.90;99.90;;;;;;5023575;28;21101;-88
2023/08/13 11:24:24;;;;;;;1.75;0.98;;;25.10;99.90;;;;;;5023132;28;20218;-84
2023/08/13 11:26:52;;;;;;;5.05;1.38;;;25.20;99.90;;;;;;5022865;28;20424;-85
2023/08/13 11:29:24;;;;;;;2.40;0.80;;;25.90;99.90;;;;;;5022791;28;20218;-83
2023/08/13 11:31:50;;;;;;;5.43;1.35;;;26.30;99.90;;;;;;5022550;28;20337;-86
2023/08/13 11:34:17;;;;;;;3.75;1.23;;;25.10;99.90;;;;;;5024232;28;20237;-89
2023/08/13 11:36:49;;;;;;;2.17;1.20;;;24.90;99.90;;;;;;5023807;28;20195;-87
2023/08/13 11:39:17;;;;;;;1.85;0.80;;;25.40;99.90;;;;;;5038413;28;20214;-90
2023/08/13 11:41:44;;;;;;;3.80;0.90;;;25.60;99.90;;;;;;5022029;28;20249;-86
2023/08/13 11:44:12;;;;;;;2.85;1.05;;;25.40;99.90;;;;;;5022766;28;20617;-87
2023/08/13 11:46:56;;;;;;;0.70;0.70;;;25.60;99.90;;;;;;5053941;28;21203;-88
2023/08/13 11:49:22;;;;;;;3.00;1.35;;;25.80;99.90;;;;;;5021863;28;20233;-86
2023/08/13 11:51:49;;;;;;;1.92;1.00;;;25.60;99.90;;;;;;5022383;28;20187;-87
2023/08/13 11:54:18;;;;;;;1.73;1.13;;;25.90;99.90;;;;;;5022269;28;20273;-86
2023/08/13 11:56:43;;;;;;;1.58;1.08;;;25.80;99.90;;;;;;5021827;28;20248;-86
2023/08/13 11:59:09;;;;;;;2.40;0.85;;;25.70;99.90;;;;;;5004206;28;20298;-91
2023/08/13 12:01:37;;;;;;;3.47;1.13;;;26.30;99.90;;;;;;5022064;28;20242;-87
2023/08/13 12:04:04;;;;;;;2.25;0.82;;;26.60;99.90;;;;;;5021345;28;20219;-87
2023/08/13 12:06:30;;;;;;;3.38;0.95;;;26.40;99.90;;;;;;5005279;28;20190;-86
2023/08/13 12:08:59;;;;;;;3.22;1.45;;;26.20;99.90;;;;;;5009998;28;20223;-85
2023/08/13 12:11:24;;;;;;;2.78;0.90;;;25.80;99.90;;;;;;5021892;28;20722;-85
2023/08/13 12:13:50;;;;;;;3.40;1.10;;;25.40;99.90;;;;;;5019937;28;20226;-85
2023/08/13 12:16:16;;;;;;;2.33;0.80;;;25.20;99.90;;;;;;5021019;28;20332;-83
2023/08/13 12:18:42;;;;;;;2.40;0.82;;;25.00;99.90;;;;;;5021908;28;20538;-85
2023/08/13 12:21:07;;;;;;;1.38;0.73;;;24.80;99.90;;;;;;5021464;28;20695;-84
2023/08/13 12:23:33;;;;;;;1.02;0.90;;;25.10;99.90;;;;;;5021189;28;20218;-86
2023/08/13 12:26:01;;;;;;;2.53;1.08;;;24.90;99.90;;;;;;5036450;28;20211;-86
2023/08/13 12:28:28;;;;;;;8.50;1.48;;;25.10;99.90;;;;;;5020114;28;20214;-83
2023/08/13 12:30:53;;;;;;;3.53;1.20;;;24.60;99.90;;;;;;5020705;28;20581;-86
2023/08/13 12:33:19;;;;;;;5.50;1.83;;;24.40;99.90;;;;;;5018951;28;20216;-84
2023/08/13 12:35:45;;;;;;;4.75;1.52;;;24.00;99.90;;;;;;5021122;28;20215;-86
2023/08/13 12:38:11;;;;;;;1.58;1.25;;;23.80;99.90;;;;;;5020492;28;20226;-83
2023/08/13 12:40:36;;;;;;;1.77;1.10;;;24.10;99.90;;;;;;5017760;28;20235;-83
2023/08/13 12:43:02;;;;;;;3.00;1.10;;;24.00;99.90;;;;;;5020925;28;20222;-86
2023/08/13 12:45:28;;;;;;;4.53;1.20;;;23.80;99.90;;;;;;5021085;28;20256;-85